Thursday, November 20, 2014, 3:34 PM EST
Back to Local

KMPO, Mt Pocono Pocono Mountains

Location: Pocono Summit, PA, United States Lat: 41.133
Local Time: 3:34 PM EST (20:34 GMT) Lon: -75.383
Time Zone: US/Eastern Elev: 1915 ft

Show me the last for .
Show Decoded

2014-11-20 14:53 METAR KMPO 201953Z AUTO 27012G20KT 10SM FEW042 01/M10 A2978 RMK AO2 PK WND
                 27026/1917 SLP108 T00061100 =
2014-11-20 13:53 METAR KMPO 201853Z AUTO 28016G24KT 10SM CLR 01/M11 A2978 RMK AO2 SLP108
                 T00061106 =
2014-11-20 12:53 METAR KMPO 201753Z AUTO 26016G27KT 10SM FEW045 01/M11 A2978 RMK AO2 PK WND
                 25027/1727 SLP107 T00111106 10017 21022 58012 =
2014-11-20 11:53 METAR KMPO 201653Z AUTO 28017G26KT 10SM CLR 00/M10 A2980 RMK AO2 PK WND
                 26035/1555 SLP115 T00001100 =
2014-11-20 09:53 METAR KMPO 201453Z AUTO 28015G29KT 10SM OVC034 00/M08 A2982 RMK AO2 PK WND
                 27029/1444 SLP121 T00001078 50001 =
2014-11-20 08:53 METAR KMPO 201353Z AUTO 26011G21KT 10SM OVC034 M01/M08 A2983 RMK AO2 SLP125
                 T10061078 =
2014-11-20 07:53 METAR KMPO 201253Z AUTO 24010G18KT 10SM SCT037 M02/M10 A2982 RMK AO2 SLP124
                 T10221100 =
2014-11-20 06:53 METAR KMPO 201153Z AUTO 25006KT 10SM OVC050 M02/M10 A2981 RMK AO2 SLP122
                 T10221100 11022 21067 58009 =
2014-11-20 05:53 METAR KMPO 201053Z AUTO 25007KT 10SM OVC050 M02/M11 A2982 RMK AO2 SLP126
                 T10221106 =
2014-11-20 04:53 METAR KMPO 200953Z AUTO 23008KT 10SM OVC060 M03/M12 A2983 RMK AO2 SLP128
                 T10281117 =
2014-11-20 03:53 METAR KMPO 200853Z AUTO VRB04KT 10SM OVC060 M04/M11 A2984 RMK AO2 SLP132
                 T10441111 58013 =
2014-11-20 02:53 METAR KMPO 200753Z AUTO 19005KT 10SM OVC060 M06/M11 A2986 RMK AO2 SLP139
                 T10561111 =
2014-11-20 01:53 METAR KMPO 200653Z AUTO 22005KT 10SM OVC070 M06/M11 A2987 RMK AO2 SLP143
                 T10561111 =
2014-11-20 00:53 METAR KMPO 200553Z AUTO 20005KT 10SM BKN065 M07/M12 A2988 RMK AO2 SLP146
                 T10671117 11061 21072 56022 =
2014-11-19 23:53 METAR KMPO 200453Z AUTO 17006KT 10SM OVC060 M07/M12 A2990 RMK AO2 SLP155
                 T10671122 410391117 =
2014-11-19 22:53 METAR KMPO 200353Z AUTO 18006KT 10SM SCT100 M07/M12 A2992 RMK AO2 SLP161
                 T10671122 =
2014-11-19 21:53 METAR KMPO 200253Z AUTO 18006KT 10SM BKN070 M07/M13 A2995 RMK AO2 SLP172
                 T10671128 58006 =
2014-11-19 20:53 METAR KMPO 200153Z AUTO 19007KT 10SM BKN055 BKN070 M07/M13 A2997 RMK AO2 SLP182
                 T10671133 =
2014-11-19 19:53 METAR KMPO 200053Z AUTO 20007KT 10SM CLR M07/M14 A2998 RMK AO2 SLP186 T10671139
                 =
2014-11-19 18:53 METAR KMPO 192353Z AUTO 20012KT 10SM FEW065 SCT080 OVC095 M07/M14 A2996 RMK AO2
                 SLP181 T10671144 11039 21067 56014 =
2014-11-19 17:53 METAR KMPO 192253Z AUTO 16009KT 10SM BKN070 BKN080 OVC100 M07/M14 A2997 RMK AO2
                 SLP183 T10671144 =
2014-11-19 15:53 METAR KMPO 192053Z AUTO 20011KT 10SM CLR M06/M15 A3001 RMK AO2 SLP195 T10561150
                 56015 =

Support USWX by starting your Amazon purchase here.